Time;durP1;ratioP1;P1;durP2;ratioP2;P2;SDS_P1;SDS_P2;PMS_P1;PMS_P2;Temp;Humidity;BMP_temperature;BMP_pressure;BME280_temperature;BME280_humidity;BME280_pressure;Samples;Min_cycle;Max_cycle;Signal;HPM_P1;HPM_P2
2020/12/20 00:01:49;;;;;;;3.73;2.53;;;10.00;99.90;;;;;;5013089;28;20194;-79
2020/12/20 00:04:16;;;;;;;5.17;2.10;;;10.00;99.90;;;;;;5013157;28;20237;-78
2020/12/20 00:06:44;;;;;;;3.65;2.80;;;10.10;99.90;;;;;;5013182;28;20445;-78
2020/12/20 00:09:20;;;;;;;3.13;2.45;;;10.00;99.90;;;;;;5013190;28;20202;-76
2020/12/20 00:11:48;;;;;;;4.30;2.28;;;10.10;99.90;;;;;;5011723;28;20198;-76
2020/12/20 00:14:34;;;;;;;2.83;2.53;;;10.00;99.90;;;;;;5012977;28;20179;-77
2020/12/20 00:17:07;;;;;;;3.70;2.53;;;10.00;99.90;;;;;;5013214;28;20253;-78
2020/12/20 00:19:34;;;;;;;3.90;2.60;;;10.10;99.90;;;;;;5012963;28;20183;-76
2020/12/20 00:22:02;;;;;;;4.05;2.40;;;10.00;99.90;;;;;;5012568;28;20240;-79
2020/12/20 00:24:29;;;;;;;3.75;2.42;;;10.00;99.90;;;;;;5006239;28;20282;-76
2020/12/20 00:26:56;;;;;;;3.55;2.65;;;10.00;99.90;;;;;;5011923;28;20202;-78
2020/12/20 00:29:22;;;;;;;2.45;2.13;;;9.90;99.90;;;;;;5013061;28;20273;-77
2020/12/20 00:31:48;;;;;;;3.90;2.40;;;9.90;99.90;;;;;;5012721;28;20285;-80
2020/12/20 00:34:13;;;;;;;3.00;2.40;;;10.00;99.90;;;;;;5016560;28;20418;-79
2020/12/20 00:36:42;;;;;;;3.23;2.40;;;10.00;99.90;;;;;;5015679;28;20214;-77
2020/12/20 00:39:08;;;;;;;2.10;1.90;;;10.00;99.90;;;;;;5015692;28;20798;-77
2020/12/20 00:41:34;;;;;;;3.00;2.20;;;10.00;99.90;;;;;;5014838;28;20202;-78
2020/12/20 00:43:59;;;;;;;2.27;1.60;;;10.10;99.90;;;;;;5014109;28;20964;-76
2020/12/20 00:46:25;;;;;;;6.00;2.20;;;10.10;99.90;;;;;;5016523;28;20230;-77
2020/12/20 00:48:51;;;;;;;4.47;3.07;;;10.10;99.90;;;;;;5016194;28;20249;-77
2020/12/20 00:51:16;;;;;;;2.47;2.27;;;10.10;99.90;;;;;;5016004;28;20198;-80
2020/12/20 00:53:42;;;;;;;4.00;2.50;;;10.00;99.90;;;;;;5015716;28;20178;-77
2020/12/20 00:56:13;;;;;;;3.90;2.07;;;10.10;99.90;;;;;;5016151;28;20202;-76
2020/12/20 00:58:38;;;;;;;3.00;1.75;;;10.20;99.90;;;;;;5016406;28;20190;-76
2020/12/20 01:01:04;;;;;;;2.57;2.03;;;10.10;99.90;;;;;;5016043;28;20206;-76
2020/12/20 01:03:30;;;;;;;3.73;1.77;;;10.00;99.90;;;;;;5015805;28;20206;-76
2020/12/20 01:05:55;;;;;;;6.50;2.40;;;10.00;99.90;;;;;;5016075;28;20170;-78
2020/12/20 01:08:22;;;;;;;3.60;1.97;;;10.00;99.90;;;;;;5016052;28;20178;-78
2020/12/20 01:10:47;;;;;;;2.85;2.40;;;10.10;99.90;;;;;;5016092;28;20296;-79
2020/12/20 01:13:14;;;;;;;5.10;2.77;;;10.20;99.90;;;;;;5015823;28;20182;-78
2020/12/20 01:15:40;;;;;;;4.45;3.13;;;10.10;99.90;;;;;;5015787;28;20175;-77
2020/12/20 01:18:05;;;;;;;5.13;2.37;;;10.10;99.90;;;;;;5016036;28;20186;-78
2020/12/20 01:20:31;;;;;;;4.07;2.60;;;10.10;99.90;;;;;;5015742;28;20198;-77
2020/12/20 01:22:56;;;;;;;3.60;2.73;;;10.20;99.90;;;;;;5015637;28;20183;-78
2020/12/20 01:25:22;;;;;;;4.47;2.40;;;10.20;99.90;;;;;;5015802;28;20178;-78
2020/12/20 01:27:48;;;;;;;5.80;3.40;;;10.20;99.90;;;;;;5015753;28;20229;-78
2020/12/20 01:30:13;;;;;;;3.63;2.90;;;10.10;99.90;;;;;;5015576;28;20663;-78
2020/12/20 01:32:39;;;;;;;4.87;2.50;;;10.10;99.90;;;;;;5015309;28;20182;-76
2020/12/20 01:35:05;;;;;;;3.13;2.83;;;10.10;99.90;;;;;;5015601;28;20183;-79
2020/12/20 01:37:31;;;;;;;3.55;2.90;;;10.10;99.90;;;;;;5015295;28;20209;-77
2020/12/20 01:39:57;;;;;;;7.28;3.10;;;10.10;99.90;;;;;;5015298;28;20225;-78
2020/12/20 01:42:23;;;;;;;4.30;2.80;;;10.00;99.90;;;;;;5015085;28;20194;-79
2020/12/20 01:44:48;;;;;;;3.90;2.53;;;10.10;99.90;;;;;;5014680;28;20258;-77
2020/12/20 01:47:15;;;;;;;7.90;3.30;;;10.00;99.90;;;;;;5015414;28;20181;-77
2020/12/20 01:49:41;;;;;;;3.88;3.47;;;10.00;99.90;;;;;;5015049;28;20662;-76
2020/12/20 01:52:08;;;;;;;3.45;3.05;;;10.00;99.90;;;;;;5014602;28;20206;-78
2020/12/20 01:54:34;;;;;;;6.03;3.80;;;10.00;99.90;;;;;;5015085;28;20175;-78
2020/12/20 01:57:02;;;;;;;6.07;3.37;;;10.00;99.90;;;;;;5015035;28;20207;-78
2020/12/20 01:59:28;;;;;;;5.28;3.35;;;9.90;99.90;;;;;;5015114;28;20167;-79
2020/12/20 02:01:56;;;;;;;5.17;3.23;;;9.90;99.90;;;;;;5014598;28;20206;-76
2020/12/20 02:04:21;;;;;;;3.50;3.20;;;10.00;99.90;;;;;;5014803;28;20183;-77
2020/12/20 02:06:47;;;;;;;6.23;3.90;;;9.90;99.90;;;;;;5014969;28;20596;-77
2020/12/20 02:09:12;;;;;;;4.73;3.33;;;9.90;99.90;;;;;;5014994;28;20175;-78
2020/12/20 02:11:38;;;;;;;4.90;3.00;;;9.90;99.90;;;;;;5014888;28;20229;-78
2020/12/20 02:14:04;;;;;;;8.60;4.00;;;9.90;99.90;;;;;;5014349;28;20221;-79
2020/12/20 02:16:29;;;;;;;3.83;3.50;;;9.80;99.90;;;;;;5014779;28;20285;-79
2020/12/20 02:18:55;;;;;;;5.03;3.53;;;9.90;99.90;;;;;;5014819;28;20167;-77
2020/12/20 02:21:24;;;;;;;7.93;4.27;;;9.90;99.90;;;;;;5014647;28;20276;-78
2020/12/20 02:23:50;;;;;;;4.20;3.80;;;9.80;99.90;;;;;;5014486;28;20206;-77
2020/12/20 02:26:17;;;;;;;4.35;3.50;;;9.80;99.90;;;;;;5014444;28;20179;-79
2020/12/20 02:28:43;;;;;;;3.85;3.47;;;9.80;99.90;;;;;;5014544;28;20179;-77
2020/12/20 02:31:09;;;;;;;4.53;3.75;;;9.80;99.90;;;;;;5014439;28;20201;-79
2020/12/20 02:33:36;;;;;;;6.00;3.40;;;9.90;99.90;;;;;;5014054;28;20233;-78
2020/12/20 02:36:02;;;;;;;4.63;3.65;;;9.80;99.90;;;;;;5014420;28;20584;-78
2020/12/20 02:38:29;;;;;;;8.02;3.97;;;9.80;99.90;;;;;;5014291;28;20178;-76
2020/12/20 02:40:55;;;;;;;4.97;3.97;;;9.80;99.90;;;;;;5014456;28;20209;-76
2020/12/20 02:43:20;;;;;;;5.00;4.25;;;9.80;99.90;;;;;;5013991;28;20190;-77
2020/12/20 02:45:46;;;;;;;4.53;3.47;;;9.70;99.90;;;;;;5014224;28;20175;-78
2020/12/20 02:48:12;;;;;;;7.17;4.30;;;9.70;99.90;;;;;;5014105;28;20185;-78
2020/12/20 02:50:37;;;;;;;6.73;3.80;;;9.70;99.90;;;;;;5013873;28;20191;-78
2020/12/20 02:53:03;;;;;;;4.40;3.60;;;9.70;99.90;;;;;;5013839;28;20175;-78
2020/12/20 02:55:28;;;;;;;7.87;4.60;;;9.80;99.90;;;;;;5013490;28;20225;-78
2020/12/20 02:57:54;;;;;;;6.00;4.10;;;9.80;99.90;;;;;;5013772;28;20468;-76
2020/12/20 03:00:21;;;;;;;5.07;4.10;;;9.80;99.90;;;;;;5013831;28;20218;-78
2020/12/20 03:02:48;;;;;;;4.40;3.20;;;9.60;99.90;;;;;;5013418;28;20202;-77
2020/12/20 03:05:14;;;;;;;4.72;3.63;;;9.60;99.90;;;;;;5013857;28;20171;-79
2020/12/20 03:07:39;;;;;;;5.53;4.28;;;9.60;99.90;;;;;;5013933;28;20175;-76
2020/12/20 03:10:06;;;;;;;4.90;3.77;;;9.60;99.90;;;;;;5014354;28;20693;-78
2020/12/20 03:12:31;;;;;;;5.70;4.28;;;9.50;99.90;;;;;;5013487;28;20183;-76
2020/12/20 03:14:57;;;;;;;6.63;4.80;;;9.50;99.90;;;;;;5013679;28;20269;-77
2020/12/20 03:17:23;;;;;;;5.23;4.47;;;9.50;99.90;;;;;;5013602;28;20279;-78
2020/12/20 03:19:49;;;;;;;6.10;4.70;;;9.50;99.90;;;;;;5013642;28;20406;-78
2020/12/20 03:22:15;;;;;;;6.88;4.60;;;9.50;99.90;;;;;;5013443;28;20195;-76
2020/12/20 03:24:41;;;;;;;5.05;4.55;;;9.50;99.90;;;;;;5012272;28;20183;-78
2020/12/20 03:27:07;;;;;;;7.43;5.03;;;9.50;99.90;;;;;;5013558;28;20577;-77
2020/12/20 03:29:32;;;;;;;5.77;4.80;;;9.40;99.90;;;;;;5013604;28;20233;-79
2020/12/20 03:31:58;;;;;;;8.63;5.33;;;9.40;99.90;;;;;;5013279;28;20340;-77
2020/12/20 03:34:23;;;;;;;7.43;5.53;;;9.40;99.90;;;;;;5013567;28;20190;-76
2020/12/20 03:36:49;;;;;;;6.20;5.33;;;9.40;99.90;;;;;;5013334;28;20636;-78
2020/12/20 03:39:15;;;;;;;6.50;4.77;;;9.40;99.90;;;;;;5013504;28;20635;-77
2020/12/20 03:41:40;;;;;;;5.43;4.73;;;9.40;99.90;;;;;;5013411;28;20225;-76
2020/12/20 03:44:06;;;;;;;6.63;5.00;;;9.40;99.90;;;;;;5013091;28;20722;-77
2020/12/20 03:46:31;;;;;;;7.40;5.87;;;9.50;99.90;;;;;;5013366;28;20183;-79
2020/12/20 03:48:57;;;;;;;7.80;5.67;;;9.50;99.90;;;;;;5013127;28;20201;-78
2020/12/20 03:51:23;;;;;;;5.83;5.13;;;9.50;99.90;;;;;;5013174;28;20233;-77
2020/12/20 03:53:48;;;;;;;6.20;5.10;;;9.50;99.90;;;;;;5013070;28;20181;-78
2020/12/20 03:56:14;;;;;;;5.40;4.90;;;9.50;99.90;;;;;;5013234;28;20249;-77
2020/12/20 03:58:39;;;;;;;6.53;5.30;;;9.50;99.90;;;;;;5013283;28;20237;-77
2020/12/20 04:01:05;;;;;;;6.80;5.00;;;9.40;99.90;;;;;;5012999;28;20194;-79
2020/12/20 04:03:31;;;;;;;9.90;5.77;;;9.40;99.90;;;;;;5013015;28;20175;-79
2020/12/20 04:05:56;;;;;;;5.97;4.97;;;9.50;99.90;;;;;;5013301;28;20218;-79
2020/12/20 04:08:22;;;;;;;5.93;5.00;;;9.50;99.90;;;;;;5015857;28;20187;-78
2020/12/20 04:10:47;;;;;;;5.20;4.27;;;9.60;99.90;;;;;;5017067;28;20207;-79
2020/12/20 04:13:13;;;;;;;7.50;5.90;;;9.60;99.90;;;;;;5016621;28;20179;-78
2020/12/20 04:15:38;;;;;;;5.90;5.30;;;9.60;99.90;;;;;;5016885;28;20280;-78
2020/12/20 04:18:04;;;;;;;6.27;4.87;;;9.50;99.90;;;;;;5017135;28;20261;-78
2020/12/20 04:20:29;;;;;;;5.27;4.83;;;9.60;99.90;;;;;;5016785;28;20190;-77
2020/12/20 04:22:55;;;;;;;5.30;4.80;;;9.50;99.90;;;;;;5016597;28;20257;-78
2020/12/20 04:25:21;;;;;;;5.90;4.93;;;9.50;99.90;;;;;;5016826;28;20182;-79
2020/12/20 04:27:48;;;;;;;7.97;5.03;;;9.40;99.90;;;;;;5016947;28;20262;-76
2020/12/20 04:30:14;;;;;;;5.68;4.25;;;9.40;99.90;;;;;;5016748;28;20190;-77
2020/12/20 04:32:40;;;;;;;7.53;5.43;;;9.40;99.90;;;;;;5016263;28;20175;-79
2020/12/20 04:35:05;;;;;;;8.73;4.50;;;9.40;99.90;;;;;;5016824;28;20468;-77
2020/12/20 04:37:31;;;;;;;6.30;4.40;;;9.40;99.90;;;;;;5016531;28;20741;-78
2020/12/20 04:39:56;;;;;;;6.47;5.00;;;9.40;99.90;;;;;;5016752;28;20237;-78
2020/12/20 04:42:22;;;;;;;5.23;4.20;;;9.40;99.90;;;;;;5016324;28;20194;-76
2020/12/20 04:44:48;;;;;;;6.40;4.70;;;9.50;99.90;;;;;;5016515;28;20643;-79
2020/12/20 04:47:16;;;;;;;5.70;4.70;;;9.50;99.90;;;;;;5016813;28;20413;-78
2020/12/20 04:49:44;;;;;;;4.88;4.30;;;9.50;99.90;;;;;;5016101;28;20674;-76
2020/12/20 04:52:10;;;;;;;7.50;4.97;;;9.40;99.90;;;;;;5015928;28;20199;-78
2020/12/20 04:54:38;;;;;;;5.60;4.32;;;9.40;99.90;;;;;;5016195;28;20175;-80
2020/12/20 04:57:06;;;;;;;6.57;4.20;;;9.50;99.90;;;;;;5016043;28;20667;-75
2020/12/20 04:59:35;;;;;;;6.43;4.85;;;9.40;99.90;;;;;;5016060;28;20245;-79
2020/12/20 05:02:01;;;;;;;5.88;5.32;;;9.40;99.90;;;;;;5015734;28;20195;-77
2020/12/20 05:04:27;;;;;;;9.00;4.43;;;9.40;99.90;;;;;;5016058;28;20179;-78
2020/12/20 05:06:52;;;;;;;5.47;4.37;;;9.50;99.90;;;;;;5016366;28;20185;-77
2020/12/20 05:09:18;;;;;;;5.53;4.53;;;9.40;99.90;;;;;;5016145;28;20245;-79
2020/12/20 05:11:44;;;;;;;4.87;3.80;;;9.40;99.90;;;;;;5015768;28;20448;-79
2020/12/20 05:14:14;;;;;;;6.50;4.78;;;9.40;99.90;;;;;;5015607;28;20262;-76
2020/12/20 05:16:41;;;;;;;4.72;4.30;;;9.30;99.90;;;;;;5015881;28;20207;-78
2020/12/20 05:19:09;;;;;;;4.97;4.47;;;9.30;99.90;;;;;;5014949;28;20174;-77
2020/12/20 05:21:35;;;;;;;5.13;4.50;;;9.40;99.90;;;;;;5015692;28;20191;-77
2020/12/20 05:24:24;;;;;;;4.28;3.88;;;9.40;99.90;;;;;;5015392;28;20183;-77
2020/12/20 05:26:50;;;;;;;6.03;4.60;;;9.40;99.90;;;;;;5015726;28;20163;-79
2020/12/20 05:29:17;;;;;;;4.63;4.20;;;9.40;99.90;;;;;;5015843;28;20646;-78
2020/12/20 05:31:43;;;;;;;7.70;5.03;;;9.40;99.90;;;;;;5015609;28;20636;-78
2020/12/20 05:34:09;;;;;;;5.83;5.20;;;9.40;99.90;;;;;;5015558;28;20178;-77
2020/12/20 05:36:34;;;;;;;6.17;5.00;;;9.30;99.90;;;;;;5015515;28;20625;-78
2020/12/20 05:39:17;;;;;;;6.97;4.67;;;9.30;99.90;;;;;;5015431;28;20180;-75
2020/12/20 05:41:43;;;;;;;6.85;5.28;;;9.20;99.90;;;;;;5015352;28;20191;-76
2020/12/20 05:44:17;;;;;;;6.22;5.55;;;9.30;99.90;;;;;;5015076;28;20178;-79
2020/12/20 05:46:46;;;;;;;11.73;4.72;;;9.40;99.90;;;;;;5015203;28;20259;-79
2020/12/20 05:49:19;;;;;;;6.88;5.15;;;9.40;99.90;;;;;;5015174;28;20562;-78
2020/12/20 05:52:23;;;;;;;5.45;4.68;;;9.40;99.90;;;;;;5014988;28;20582;-80
2020/12/20 05:54:49;;;;;;;7.22;4.47;;;9.40;99.90;;;;;;4993458;28;20187;-78
2020/12/20 05:57:16;;;;;;;6.00;4.80;;;9.40;99.90;;;;;;4993414;28;20314;-78
2020/12/20 05:59:44;;;;;;;6.07;4.72;;;9.40;99.90;;;;;;5003722;28;20190;-77
2020/12/20 06:02:10;;;;;;;4.80;4.22;;;9.40;99.90;;;;;;5014408;28;20667;-78
2020/12/20 06:04:37;;;;;;;4.95;4.45;;;9.40;99.90;;;;;;5014939;28;20184;-77
2020/12/20 06:07:04;;;;;;;6.15;4.82;;;9.50;99.90;;;;;;5015095;28;20262;-78
2020/12/20 06:09:31;;;;;;;6.80;4.78;;;9.50;99.90;;;;;;5015384;28;20180;-79
2020/12/20 06:11:58;;;;;;;4.63;4.00;;;9.50;99.90;;;;;;5014887;28;20281;-78
2020/12/20 06:14:27;;;;;;;4.82;4.05;;;9.50;99.90;;;;;;5014725;28;20181;-78
2020/12/20 06:17:12;;;;;;;7.00;4.68;;;9.60;99.90;;;;;;5014808;28;20202;-75
2020/12/20 06:19:49;;;;;;;4.65;4.25;;;9.50;99.90;;;;;;5015057;28;20178;-75
2020/12/20 06:22:23;;;;;;;5.28;4.53;;;9.40;99.90;;;;;;5014385;28;20552;-76
2020/12/20 06:24:50;;;;;;;7.38;4.45;;;9.40;99.90;;;;;;5014809;28;20619;-78
2020/12/20 06:27:18;;;;;;;6.40;4.38;;;9.30;99.90;;;;;;5014642;28;20204;-75
2020/12/20 06:29:46;;;;;;;5.10;4.60;;;9.40;99.90;;;;;;5014654;28;20182;-77
2020/12/20 06:32:15;;;;;;;5.70;4.70;;;9.40;99.90;;;;;;5014080;28;20622;-76
2020/12/20 06:34:42;;;;;;;5.22;4.25;;;9.40;99.90;;;;;;5014543;28;20270;-76
2020/12/20 06:37:09;;;;;;;6.18;4.20;;;9.40;99.90;;;;;;5014472;28;20217;-77
2020/12/20 06:39:39;;;;;;;6.30;4.45;;;9.30;99.90;;;;;;5014274;28;20588;-76
2020/12/20 06:42:05;;;;;;;7.13;5.18;;;9.30;99.90;;;;;;5014004;28;20689;-77
2020/12/20 06:44:31;;;;;;;13.48;5.40;;;9.30;99.90;;;;;;5014260;28;20229;-77
2020/12/20 06:46:58;;;;;;;5.37;4.80;;;9.20;99.90;;;;;;5014410;28;20586;-76
2020/12/20 06:49:37;;;;;;;7.63;5.50;;;9.30;99.90;;;;;;5014002;28;20197;-77
2020/12/20 06:52:23;;;;;;;6.38;4.93;;;9.30;99.90;;;;;;5013815;28;20567;-75
2020/12/20 06:55:02;;;;;;;8.15;4.95;;;9.20;99.90;;;;;;5014221;28;20540;-77
2020/12/20 06:57:28;;;;;;;5.63;5.13;;;9.20;99.90;;;;;;5013950;28;20217;-78
2020/12/20 06:59:54;;;;;;;8.63;5.47;;;9.20;99.90;;;;;;5014066;28;20666;-77
2020/12/20 07:02:42;;;;;;;6.90;5.60;;;9.20;99.90;;;;;;5013515;28;20183;-77
2020/12/20 07:05:40;;;;;;;6.38;5.20;;;9.20;99.90;;;;;;5013796;28;20611;-75
2020/12/20 07:08:07;;;;;;;4.70;4.25;;;9.10;99.90;;;;;;5013913;28;20179;-78
2020/12/20 07:10:59;;;;;;;7.70;3.95;;;9.10;99.90;;;;;;5013648;28;20277;-78
2020/12/20 07:13:42;;;;;;;8.30;4.95;;;9.00;99.90;;;;;;5012546;28;20187;-78
2020/12/20 07:16:16;;;;;;;6.00;4.38;;;9.00;99.90;;;;;;5013706;28;20213;-76
2020/12/20 07:19:02;;;;;;;6.97;4.80;;;9.00;99.90;;;;;;5013674;28;20171;-76
2020/12/20 07:21:30;;;;;;;8.50;4.53;;;8.90;99.90;;;;;;5013668;28;20285;-74
2020/12/20 07:24:19;;;;;;;6.03;4.00;;;8.90;99.90;;;;;;5013498;28;20171;-77
2020/12/20 07:26:46;;;;;;;6.72;3.45;;;8.90;99.90;;;;;;5013429;28;20187;-74
2020/12/20 07:29:12;;;;;;;8.45;4.18;;;8.80;99.90;;;;;;5013656;28;20185;-77
2020/12/20 07:31:38;;;;;;;7.13;4.93;;;8.80;99.90;;;;;;5013438;28;20214;-77
2020/12/20 07:34:05;;;;;;;5.30;4.57;;;8.80;99.90;;;;;;5013423;28;20232;-76
2020/12/20 07:36:31;;;;;;;6.93;4.40;;;8.80;99.90;;;;;;5013311;28;20827;-78
2020/12/20 07:38:57;;;;;;;4.93;4.00;;;8.70;99.90;;;;;;5013538;28;20178;-77
2020/12/20 07:41:26;;;;;;;5.75;3.80;;;8.80;99.90;;;;;;5013169;28;20273;-75
2020/12/20 07:43:53;;;;;;;7.88;3.80;;;8.70;99.90;;;;;;5012885;28;20198;-77
2020/12/20 07:46:20;;;;;;;4.35;3.95;;;8.70;99.90;;;;;;5013503;28;20190;-75
2020/12/20 07:48:46;;;;;;;6.13;5.28;;;8.70;99.90;;;;;;5013168;28;20647;-76
2020/12/20 07:51:13;;;;;;;7.93;4.40;;;8.70;99.90;;;;;;5013248;28;20198;-75
2020/12/20 07:53:57;;;;;;;7.20;4.30;;;8.70;99.90;;;;;;5013052;28;20257;-74
2020/12/20 07:56:27;;;;;;;7.95;4.32;;;8.70;99.90;;;;;;5013283;28;20778;-75
2020/12/20 07:58:55;;;;;;;5.03;3.70;;;8.70;99.90;;;;;;5013143;28;20178;-78
2020/12/20 08:01:21;;;;;;;8.60;3.63;;;8.70;99.90;;;;;;5013217;28;20210;-76
2020/12/20 08:03:47;;;;;;;5.30;4.22;;;8.80;99.90;;;;;;5012872;28;20229;-76
2020/12/20 08:06:15;;;;;;;5.55;4.45;;;8.70;99.90;;;;;;5013278;28;20182;-76
2020/12/20 08:08:43;;;;;;;6.25;4.45;;;8.70;99.90;;;;;;5013115;28;20190;-75
2020/12/20 08:11:31;;;;;;;9.57;4.10;;;8.70;99.90;;;;;;5013067;28;20193;-77
2020/12/20 08:14:02;;;;;;;6.20;3.78;;;8.80;99.90;;;;;;5012948;28;20190;-77
2020/12/20 08:16:30;;;;;;;5.60;4.00;;;8.80;99.90;;;;;;5013189;28;20237;-75
2020/12/20 08:19:02;;;;;;;7.03;4.72;;;8.90;99.90;;;;;;5013118;28;20225;-76
2020/12/20 08:21:50;;;;;;;7.93;3.90;;;8.90;99.90;;;;;;5012841;28;20199;-78
2020/12/20 08:24:17;;;;;;;7.82;3.47;;;8.90;99.90;;;;;;5013393;28;20217;-77
2020/12/20 08:26:43;;;;;;;6.03;3.67;;;8.90;99.90;;;;;;5013215;28;20190;-76
2020/12/20 08:29:12;;;;;;;6.28;4.35;;;8.90;99.90;;;;;;5012799;28;20206;-78
2020/12/20 08:31:37;;;;;;;8.43;3.80;;;8.90;99.90;;;;;;5012917;28;20722;-76
2020/12/20 08:34:14;;;;;;;9.70;3.70;;;9.00;99.90;;;;;;5012803;28;20207;-78
2020/12/20 08:36:43;;;;;;;3.75;3.20;;;9.00;99.90;;;;;;5012918;28;20206;-75
2020/12/20 08:39:09;;;;;;;8.15;3.88;;;9.20;99.90;;;;;;5012918;28;20186;-77
2020/12/20 08:41:35;;;;;;;6.73;3.23;;;9.10;99.90;;;;;;5012793;28;20198;-76
2020/12/20 08:44:08;;;;;;;6.00;3.30;;;9.20;99.90;;;;;;5012450;28;20186;-78
2020/12/20 08:46:37;;;;;;;8.55;3.13;;;9.20;99.90;;;;;;5012790;28;20159;-76
2020/12/20 08:49:12;;;;;;;3.17;2.75;;;9.30;99.90;;;;;;5012884;28;20542;-77
2020/12/20 08:51:38;;;;;;;4.85;3.00;;;9.40;99.90;;;;;;5012649;28;20214;-75
2020/12/20 08:54:03;;;;;;;7.87;3.13;;;9.50;99.90;;;;;;5012965;28;20183;-75
2020/12/20 08:56:29;;;;;;;5.50;3.10;;;9.50;99.90;;;;;;5016149;28;20199;-75
2020/12/20 08:58:58;;;;;;;4.50;3.30;;;9.60;99.90;;;;;;5016285;28;20186;-75
2020/12/20 09:01:26;;;;;;;4.53;3.15;;;9.70;99.90;;;;;;5015865;28;20199;-76
2020/12/20 09:03:52;;;;;;;5.38;3.17;;;9.80;99.90;;;;;;5015837;28;20213;-76
2020/12/20 09:06:18;;;;;;;3.75;2.60;;;9.90;99.90;;;;;;5016036;28;20181;-76
2020/12/20 09:08:44;;;;;;;5.67;3.07;;;10.00;99.90;;;;;;5016019;28;20179;-76
2020/12/20 09:11:26;;;;;;;4.23;2.10;;;10.00;99.90;;;;;;5014759;28;20252;-77
2020/12/20 09:13:51;;;;;;;5.68;2.90;;;10.00;99.90;;;;;;5015614;28;20673;-78
2020/12/20 09:16:17;;;;;;;5.20;2.87;;;10.00;99.90;;;;;;5015972;28;20206;-78
2020/12/20 09:18:43;;;;;;;8.73;3.40;;;10.10;99.90;;;;;;5016044;28;20262;-76
2020/12/20 09:21:08;;;;;;;10.43;4.53;;;10.10;99.90;;;;;;5015754;28;20438;-76
2020/12/20 09:23:34;;;;;;;8.77;3.20;;;10.20;99.90;;;;;;5015417;28;20329;-75
2020/12/20 09:26:01;;;;;;;8.20;3.93;;;10.40;99.90;;;;;;5015721;28;20226;-75
2020/12/20 09:28:28;;;;;;;6.70;4.13;;;10.40;99.90;;;;;;5014512;28;20635;-76
2020/12/20 09:30:56;;;;;;;4.80;3.28;;;10.50;99.90;;;;;;5014372;28;20226;-76
2020/12/20 09:33:30;;;;;;;5.85;2.60;;;10.50;99.90;;;;;;5015085;28;20186;-76
2020/12/20 09:36:08;;;;;;;9.18;2.70;;;10.50;99.90;;;;;;5015448;28;20180;-75
2020/12/20 09:38:45;;;;;;;5.00;3.22;;;10.60;99.90;;;;;;5015611;28;20170;-77
2020/12/20 09:41:13;;;;;;;5.43;3.05;;;10.80;99.90;;;;;;5015618;28;20198;-77
2020/12/20 09:43:40;;;;;;;4.15;2.75;;;10.90;99.90;;;;;;5015100;28;20646;-77
2020/12/20 09:46:06;;;;;;;4.45;2.35;;;11.00;99.90;;;;;;5015389;28;20273;-75
2020/12/20 09:48:32;;;;;;;6.20;2.58;;;11.10;99.90;;;;;;5015182;28;20182;-77
2020/12/20 09:50:59;;;;;;;8.02;2.70;;;11.10;99.90;;;;;;5015093;28;20202;-77
2020/12/20 09:53:24;;;;;;;5.13;2.75;;;11.30;99.90;;;;;;5014969;28;20279;-75
2020/12/20 09:55:50;;;;;;;7.10;2.60;;;11.20;99.90;;;;;;5014876;28;20679;-76
2020/12/20 09:58:16;;;;;;;5.70;2.30;;;11.10;99.90;;;;;;5015117;28;20221;-77
2020/12/20 10:00:43;;;;;;;7.67;3.53;;;11.10;99.90;;;;;;5015028;28;20192;-76
2020/12/20 10:03:10;;;;;;;4.90;2.55;;;11.10;99.90;;;;;;5014694;28;20548;-76
2020/12/20 10:05:36;;;;;;;10.23;3.83;;;11.20;99.90;;;;;;5014351;28;20167;-78
2020/12/20 10:08:02;;;;;;;7.03;2.50;;;11.20;99.90;;;;;;5014806;28;20189;-77
2020/12/20 10:10:28;;;;;;;5.13;2.72;;;11.10;99.90;;;;;;5014772;28;20429;-76
2020/12/20 10:12:56;;;;;;;5.95;2.55;;;11.20;99.90;;;;;;5014662;28;20183;-77
2020/12/20 10:15:21;;;;;;;5.50;2.47;;;11.20;99.90;;;;;;5014834;28;20265;-76
2020/12/20 10:17:47;;;;;;;6.00;2.77;;;11.30;99.90;;;;;;5014704;28;20613;-75
2020/12/20 10:20:12;;;;;;;5.43;2.97;;;11.30;99.90;;;;;;5014542;28;20237;-76
2020/12/20 10:22:38;;;;;;;13.03;3.20;;;11.40;99.90;;;;;;5014360;28;20202;-74
2020/12/20 10:25:05;;;;;;;6.70;2.70;;;11.30;99.90;;;;;;5014678;28;20175;-76
2020/12/20 10:27:31;;;;;;;5.82;2.50;;;11.30;99.90;;;;;;5014763;28;20179;-75
2020/12/20 10:29:57;;;;;;;7.60;3.25;;;11.30;99.90;;;;;;5014671;28;20252;-77
2020/12/20 10:32:22;;;;;;;4.57;2.83;;;11.40;99.90;;;;;;5014264;28;20198;-75
2020/12/20 10:34:48;;;;;;;4.60;2.50;;;11.40;99.90;;;;;;5014644;28;20262;-76
2020/12/20 10:37:13;;;;;;;5.93;2.10;;;11.40;99.90;;;;;;5014379;28;20210;-77
2020/12/20 10:39:39;;;;;;;9.30;2.80;;;11.50;99.90;;;;;;5014377;28;20186;-77
2020/12/20 10:42:05;;;;;;;6.40;2.87;;;11.50;99.90;;;;;;5014052;28;20303;-74
2020/12/20 10:44:30;;;;;;;6.13;2.20;;;11.70;99.90;;;;;;5014224;28;20194;-76
2020/12/20 10:46:56;;;;;;;6.87;2.70;;;11.60;99.90;;;;;;5014269;28;20261;-75
2020/12/20 10:49:21;;;;;;;6.77;3.17;;;11.70;99.90;;;;;;5013733;28;20202;-76
2020/12/20 10:51:52;;;;;;;9.83;2.30;;;11.80;99.90;;;;;;5003495;28;20207;-76
2020/12/20 10:54:18;;;;;;;6.13;2.10;;;11.80;99.90;;;;;;4994771;28;20202;-75
2020/12/20 10:56:46;;;;;;;7.70;2.58;;;11.80;99.90;;;;;;4993957;28;20341;-76
2020/12/20 10:59:12;;;;;;;5.32;2.67;;;11.80;99.90;;;;;;4994401;28;20167;-75
2020/12/20 11:01:37;;;;;;;5.90;2.80;;;11.70;99.90;;;;;;4993733;28;20231;-77
2020/12/20 11:04:03;;;;;;;5.83;2.37;;;11.70;99.90;;;;;;4993496;28;20273;-76
2020/12/20 11:06:30;;;;;;;6.47;2.20;;;11.80;99.90;;;;;;4993595;28;20175;-77
2020/12/20 11:08:56;;;;;;;6.32;3.25;;;11.70;99.90;;;;;;4992309;28;20171;-78
2020/12/20 11:11:31;;;;;;;6.23;2.77;;;11.80;99.90;;;;;;4994204;28;20203;-78
2020/12/20 11:13:58;;;;;;;5.40;2.58;;;11.60;99.90;;;;;;5001323;28;20200;-78
2020/12/20 11:16:24;;;;;;;5.72;2.40;;;11.60;99.90;;;;;;4993530;28;20243;-76
2020/12/20 11:18:50;;;;;;;12.47;3.10;;;11.60;99.90;;;;;;4994294;28;20655;-75
2020/12/20 11:21:17;;;;;;;5.43;2.75;;;11.60;99.90;;;;;;4994053;28;20427;-77
2020/12/20 11:23:44;;;;;;;8.73;2.92;;;11.60;99.90;;;;;;4992893;28;20174;-78
2020/12/20 11:26:21;;;;;;;7.43;2.50;;;11.70;99.90;;;;;;4993565;28;20263;-77
2020/12/20 11:28:48;;;;;;;5.50;2.50;;;11.80;99.90;;;;;;4994078;28;21114;-77
2020/12/20 11:31:16;;;;;;;8.77;3.30;;;11.80;99.90;;;;;;4993682;28;20269;-75
2020/12/20 11:33:43;;;;;;;9.70;2.85;;;11.80;99.90;;;;;;4993646;28;20172;-76
2020/12/20 11:36:09;;;;;;;5.33;2.23;;;11.80;99.90;;;;;;4993853;28;20601;-78
2020/12/20 11:38:35;;;;;;;7.82;2.72;;;11.70;99.90;;;;;;4993674;28;20415;-75
2020/12/20 11:41:03;;;;;;;8.52;3.20;;;11.60;99.90;;;;;;4993849;28;20202;-76
2020/12/20 11:43:32;;;;;;;7.13;3.00;;;11.80;99.90;;;;;;4993540;28;20172;-77
2020/12/20 11:45:58;;;;;;;9.55;3.35;;;11.70;99.90;;;;;;4993807;28;20206;-75
2020/12/20 11:48:24;;;;;;;6.23;2.80;;;11.70;99.90;;;;;;4993666;28;20195;-76
2020/12/20 11:50:50;;;;;;;10.70;3.60;;;11.90;99.90;;;;;;4993594;28;20530;-76
2020/12/20 11:53:15;;;;;;;4.70;2.80;;;12.00;99.90;;;;;;4993388;28;20716;-74
2020/12/20 11:55:42;;;;;;;13.13;3.53;;;11.90;99.90;;;;;;4993788;28;20175;-76
2020/12/20 11:58:16;;;;;;;9.10;3.10;;;11.90;99.90;;;;;;4993794;28;20616;-77
2020/12/20 12:00:44;;;;;;;10.60;3.13;;;11.80;99.90;;;;;;4993541;28;20195;-76
2020/12/20 12:03:10;;;;;;;6.93;2.50;;;11.90;99.90;;;;;;4992036;28;20911;-77
2020/12/20 12:05:39;;;;;;;7.60;3.80;;;11.90;99.90;;;;;;4993689;28;20411;-75
2020/12/20 12:08:08;;;;;;;5.15;2.97;;;11.90;99.90;;;;;;4993579;28;20429;-76
2020/12/20 12:10:35;;;;;;;6.70;3.17;;;12.00;99.90;;;;;;4993556;28;20696;-76
2020/12/20 12:13:01;;;;;;;6.73;2.83;;;12.10;99.90;;;;;;4993081;28;20892;-75
2020/12/20 12:15:27;;;;;;;7.23;2.83;;;12.20;99.90;;;;;;4993544;28;20406;-75
2020/12/20 12:17:53;;;;;;;9.20;3.00;;;12.20;99.90;;;;;;4993621;28;20466;-76
2020/12/20 12:20:19;;;;;;;9.03;3.50;;;12.20;99.90;;;;;;4993526;28;20465;-75
2020/12/20 12:22:46;;;;;;;5.70;3.67;;;12.30;99.90;;;;;;4993201;28;20207;-76
2020/12/20 12:25:11;;;;;;;7.57;2.77;;;12.40;99.90;;;;;;4993393;28;20633;-75
2020/12/20 12:27:37;;;;;;;7.17;2.77;;;12.40;99.90;;;;;;4993221;28;20432;-77
2020/12/20 12:30:03;;;;;;;8.00;2.97;;;12.50;99.90;;;;;;4996969;28;20183;-76
2020/12/20 12:32:29;;;;;;;6.00;2.67;;;12.50;99.90;;;;;;4996711;28;20597;-75
2020/12/20 12:34:56;;;;;;;7.60;2.37;;;12.60;99.90;;;;;;4996879;28;20179;-76
2020/12/20 12:37:22;;;;;;;4.33;2.27;;;12.70;99.90;;;;;;4997251;28;20507;-76
2020/12/20 12:39:47;;;;;;;8.03;3.10;;;12.80;99.90;;;;;;4997274;28;20414;-75
2020/12/20 12:42:13;;;;;;;8.40;3.70;;;12.70;99.90;;;;;;4996650;28;20687;-75
2020/12/20 12:44:42;;;;;;;6.77;3.00;;;12.80;99.90;;;;;;4997161;28;20175;-75
2020/12/20 12:47:08;;;;;;;11.10;3.10;;;12.90;99.90;;;;;;4996925;28;20193;-75
2020/12/20 12:49:34;;;;;;;9.03;2.87;;;12.90;99.90;;;;;;4996708;28;20442;-77
2020/12/20 12:52:00;;;;;;;6.60;2.90;;;13.00;99.90;;;;;;4996473;28;20488;-76
2020/12/20 12:54:25;;;;;;;10.23;3.20;;;12.90;99.90;;;;;;4996703;28;20804;-74
2020/12/20 12:56:51;;;;;;;9.20;2.70;;;13.10;99.90;;;;;;4996567;28;20254;-74